Pilottown, Louisiana
Current Conditions -  °F | °C
As of 12:51 PM on Tuesday 21 Oct 2014 (Local Time) from KBVE Reporting Station
Clear Clear  
Wind Chill: 76°   Ceiling: Unl
Heat Index: 76°   Visibility: 10mi
Dew Point: 61°   Wind: 10mph
Humidity: 60%   Direction: 50°NE
Pressure: 30.03"   Gusts: 17mph
Location:  29.18°N, 89.26°W
Report Text: KBVE 211751Z AUTO 05009G15KT 10SM CLR 24/16 A3003 RMK AO2 SLP168 T02440161 10250 20217 58005
Loading
Personal Weather Stations






























Interactive Weather Map
Tropical Storm Tracking
New forecast layout! Learn more

10-Day Weather Forecast

Advertisements
Track Severe Weather on mobile